sensor_id;sensor_type;location;lat;lon;timestamp;pressure;altitude;pressure_sealevel;temperature;humidity
22862;BME280;11598;50.652;6.172;2022-09-25T00:04:49;96245.66;;;9.46;100.00
22862;BME280;11598;50.652;6.172;2022-09-25T00:14:50;96251.56;;;9.48;100.00
22862;BME280;11598;50.652;6.172;2022-09-25T00:24:50;96260.75;;;9.52;100.00
22862;BME280;11598;50.652;6.172;2022-09-25T00:34:51;96251.25;;;9.52;100.00
22862;BME280;11598;50.652;6.172;2022-09-25T00:55:02;96243.00;;;9.59;100.00
22862;BME280;11598;50.652;6.172;2022-09-25T01:05:08;96233.94;;;9.64;100.00
22862;BME280;11598;50.652;6.172;2022-09-25T01:15:14;96231.13;;;9.67;100.00
22862;BME280;11598;50.652;6.172;2022-09-25T01:35:28;96235.47;;;9.67;100.00
22862;BME280;11598;50.652;6.172;2022-09-25T01:45:37;96231.13;;;9.67;100.00
22862;BME280;11598;50.652;6.172;2022-09-25T01:55:44;96231.81;;;9.69;100.00
22862;BME280;11598;50.652;6.172;2022-09-25T02:05:49;96228.63;;;9.66;100.00
22862;BME280;11598;50.652;6.172;2022-09-25T02:15:55;96221.19;;;9.61;100.00
22862;BME280;11598;50.652;6.172;2022-09-25T02:26:03;96238.28;;;9.52;100.00
22862;BME280;11598;50.652;6.172;2022-09-25T02:36:05;96249.66;;;9.39;100.00
22862;BME280;11598;50.652;6.172;2022-09-25T02:46:24;96247.81;;;9.28;100.00
22862;BME280;11598;50.652;6.172;2022-09-25T02:56:32;96249.53;;;9.16;100.00
22862;BME280;11598;50.652;6.172;2022-09-25T03:06:36;96241.16;;;9.13;100.00
22862;BME280;11598;50.652;6.172;2022-09-25T03:16:52;96251.97;;;9.06;100.00
22862;BME280;11598;50.652;6.172;2022-09-25T03:26:55;96252.28;;;9.02;100.00
22862;BME280;11598;50.652;6.172;2022-09-25T03:36:55;96252.63;;;8.97;100.00
22862;BME280;11598;50.652;6.172;2022-09-25T03:46:56;96252.63;;;8.97;100.00
22862;BME280;11598;50.652;6.172;2022-09-25T03:56:56;96256.34;;;8.93;100.00
22862;BME280;11598;50.652;6.172;2022-09-25T04:06:56;96248.41;;;8.83;100.00
22862;BME280;11598;50.652;6.172;2022-09-25T04:16:58;96254.88;;;8.78;100.00
22862;BME280;11598;50.652;6.172;2022-09-25T04:26:59;96252.69;;;8.72;100.00
22862;BME280;11598;50.652;6.172;2022-09-25T04:36:59;96262.47;;;8.68;100.00
22862;BME280;11598;50.652;6.172;2022-09-25T04:47:00;96275.63;;;8.52;100.00
22862;BME280;11598;50.652;6.172;2022-09-25T04:57:00;96279.81;;;8.42;100.00
22862;BME280;11598;50.652;6.172;2022-09-25T05:07:01;96277.69;;;8.34;100.00
22862;BME280;11598;50.652;6.172;2022-09-25T05:17:02;96289.00;;;8.33;100.00
22862;BME280;11598;50.652;6.172;2022-09-25T05:27:02;96295.81;;;8.34;100.00
22862;BME280;11598;50.652;6.172;2022-09-25T05:37:03;96300.25;;;8.32;100.00
22862;BME280;11598;50.652;6.172;2022-09-25T05:47:03;96289.31;;;8.29;100.00
22862;BME280;11598;50.652;6.172;2022-09-25T05:57:05;96295.59;;;8.24;100.00
22862;BME280;11598;50.652;6.172;2022-09-25T06:07:05;96303.47;;;8.23;100.00
22862;BME280;11598;50.652;6.172;2022-09-25T06:17:06;96302.66;;;8.22;100.00
22862;BME280;11598;50.652;6.172;2022-09-25T06:27:07;96307.53;;;8.14;100.00
22862;BME280;11598;50.652;6.172;2022-09-25T06:37:07;96322.53;;;8.09;100.00
22862;BME280;11598;50.652;6.172;2022-09-25T06:47:08;96316.94;;;8.15;100.00
22862;BME280;11598;50.652;6.172;2022-09-25T06:57:11;96325.00;;;8.36;100.00
22862;BME280;11598;50.652;6.172;2022-09-25T07:07:11;96334.63;;;8.34;100.00
22862;BME280;11598;50.652;6.172;2022-09-25T07:17:13;96332.16;;;8.20;100.00
22862;BME280;11598;50.652;6.172;2022-09-25T07:27:13;96324.28;;;8.21;100.00
22862;BME280;11598;50.652;6.172;2022-09-25T07:37:13;96336.63;;;8.43;100.00
22862;BME280;11598;50.652;6.172;2022-09-25T07:47:14;96340.16;;;8.55;100.00
22862;BME280;11598;50.652;6.172;2022-09-25T07:57:16;96325.41;;;8.81;100.00
22862;BME280;11598;50.652;6.172;2022-09-25T08:07:19;96339.78;;;8.98;100.00
22862;BME280;11598;50.652;6.172;2022-09-25T08:17:20;96340.34;;;9.15;100.00
22862;BME280;11598;50.652;6.172;2022-09-25T08:27:21;96344.38;;;9.31;100.00
22862;BME280;11598;50.652;6.172;2022-09-25T08:37:22;96351.00;;;8.99;100.00
22862;BME280;11598;50.652;6.172;2022-09-25T08:47:24;96356.81;;;8.77;100.00
22862;BME280;11598;50.652;6.172;2022-09-25T08:57:45;96354.16;;;9.15;100.00
22862;BME280;11598;50.652;6.172;2022-09-25T09:07:52;96355.72;;;9.05;100.00
22862;BME280;11598;50.652;6.172;2022-09-25T09:17:53;96361.25;;;8.75;100.00
22862;BME280;11598;50.652;6.172;2022-09-25T09:48:28;96352.56;;;9.25;100.00
22862;BME280;11598;50.652;6.172;2022-09-25T10:08:53;96342.03;;;9.40;100.00
22862;BME280;11598;50.652;6.172;2022-09-25T10:19:04;96347.75;;;9.80;100.00
22862;BME280;11598;50.652;6.172;2022-09-25T10:39:42;96342.03;;;10.34;100.00
22862;BME280;11598;50.652;6.172;2022-09-25T10:49:46;96343.25;;;10.42;100.00
22862;BME280;11598;50.652;6.172;2022-09-25T11:00:24;96338.53;;;10.69;100.00
22862;BME280;11598;50.652;6.172;2022-09-25T11:10:32;96345.19;;;10.85;97.00
22862;BME280;11598;50.652;6.172;2022-09-25T11:20:33;96351.13;;;11.41;93.19
22862;BME280;11598;50.652;6.172;2022-09-25T11:30:42;96343.16;;;11.11;91.69
22862;BME280;11598;50.652;6.172;2022-09-25T11:40:58;96347.31;;;10.79;91.48
22862;BME280;11598;50.652;6.172;2022-09-25T11:51:33;96334.28;;;11.13;90.41
22862;BME280;11598;50.652;6.172;2022-09-25T12:01:44;96331.06;;;11.10;88.86
22862;BME280;11598;50.652;6.172;2022-09-25T12:43:03;96311.03;;;11.76;82.57
22862;BME280;11598;50.652;6.172;2022-09-25T13:03:42;96282.25;;;11.78;82.73
22862;BME280;11598;50.652;6.172;2022-09-25T13:13:48;96282.47;;;11.65;80.98
22862;BME280;11598;50.652;6.172;2022-09-25T13:23:52;96271.97;;;11.23;80.80
22862;BME280;11598;50.652;6.172;2022-09-25T13:54:36;96249.31;;;11.99;81.94
22862;BME280;11598;50.652;6.172;2022-09-25T14:04:38;96240.31;;;12.44;79.58
22862;BME280;11598;50.652;6.172;2022-09-25T14:14:44;96237.28;;;12.39;78.74
22862;BME280;11598;50.652;6.172;2022-09-25T14:24:51;96245.72;;;11.79;79.58
22862;BME280;11598;50.652;6.172;2022-09-25T14:55:38;96226.28;;;11.41;79.76
22862;BME280;11598;50.652;6.172;2022-09-25T15:05:45;96217.97;;;11.69;78.51
22862;BME280;11598;50.652;6.172;2022-09-25T15:15:50;96210.91;;;11.80;77.99
22862;BME280;11598;50.652;6.172;2022-09-25T15:26:14;96202.69;;;11.96;78.72
22862;BME280;11598;50.652;6.172;2022-09-25T15:36:22;96196.31;;;12.10;79.19
22862;BME280;11598;50.652;6.172;2022-09-25T15:46:34;96199.97;;;12.29;78.15
22862;BME280;11598;50.652;6.172;2022-09-25T15:56:49;96186.72;;;12.11;77.75
22862;BME280;11598;50.652;6.172;2022-09-25T16:06:51;96188.13;;;11.73;78.34
22862;BME280;11598;50.652;6.172;2022-09-25T16:16:51;96194.84;;;11.33;79.39
22862;BME280;11598;50.652;6.172;2022-09-25T16:26:54;96197.47;;;11.01;80.75
22862;BME280;11598;50.652;6.172;2022-09-25T16:36:59;96205.91;;;10.82;81.97
22862;BME280;11598;50.652;6.172;2022-09-25T16:47:18;96210.91;;;10.51;83.82
22862;BME280;11598;50.652;6.172;2022-09-25T16:57:24;96196.63;;;10.12;85.67
22862;BME280;11598;50.652;6.172;2022-09-25T17:07:26;96209.19;;;9.71;87.50
22862;BME280;11598;50.652;6.172;2022-09-25T17:17:27;96219.59;;;9.36;88.94
22862;BME280;11598;50.652;6.172;2022-09-25T17:27:29;96207.63;;;8.98;90.28
22862;BME280;11598;50.652;6.172;2022-09-25T17:37:29;96210.22;;;8.74;91.52
22862;BME280;11598;50.652;6.172;2022-09-25T17:47:30;96210.66;;;8.68;92.06
22862;BME280;11598;50.652;6.172;2022-09-25T17:57:30;96203.16;;;8.52;92.82
22862;BME280;11598;50.652;6.172;2022-09-25T18:07:31;96206.38;;;8.30;93.11
22862;BME280;11598;50.652;6.172;2022-09-25T18:17:31;96197.59;;;8.07;93.81
22862;BME280;11598;50.652;6.172;2022-09-25T18:27:32;96204.13;;;7.87;94.94
22862;BME280;11598;50.652;6.172;2022-09-25T18:37:33;96207.94;;;7.69;95.91
22862;BME280;11598;50.652;6.172;2022-09-25T18:47:33;96206.19;;;7.56;96.39
22862;BME280;11598;50.652;6.172;2022-09-25T18:57:34;96204.31;;;7.46;97.16
22862;BME280;11598;50.652;6.172;2022-09-25T19:07:35;96200.88;;;7.45;98.16
22862;BME280;11598;50.652;6.172;2022-09-25T19:17:35;96195.53;;;7.61;98.91
22862;BME280;11598;50.652;6.172;2022-09-25T19:27:35;96191.19;;;7.74;99.14
22862;BME280;11598;50.652;6.172;2022-09-25T19:37:37;96193.78;;;7.74;98.97
22862;BME280;11598;50.652;6.172;2022-09-25T19:47:37;96182.94;;;7.69;99.21
22862;BME280;11598;50.652;6.172;2022-09-25T19:57:38;96176.59;;;7.73;99.40
22862;BME280;11598;50.652;6.172;2022-09-25T20:07:38;96161.41;;;7.69;99.53
22862;BME280;11598;50.652;6.172;2022-09-25T20:17:39;96155.94;;;7.60;99.50
22862;BME280;11598;50.652;6.172;2022-09-25T20:27:39;96147.25;;;7.49;99.44
22862;BME280;11598;50.652;6.172;2022-09-25T20:37:43;96144.53;;;7.37;99.84
22862;BME280;11598;50.652;6.172;2022-09-25T20:47:43;96140.41;;;7.35;100.00
22862;BME280;11598;50.652;6.172;2022-09-25T20:57:44;96132.13;;;7.30;100.00
22862;BME280;11598;50.652;6.172;2022-09-25T21:07:44;96130.06;;;7.22;100.00
22862;BME280;11598;50.652;6.172;2022-09-25T21:17:45;96125.00;;;7.20;100.00
22862;BME280;11598;50.652;6.172;2022-09-25T21:27:45;96119.91;;;7.19;100.00
22862;BME280;11598;50.652;6.172;2022-09-25T21:37:46;96104.31;;;7.20;100.00
22862;BME280;11598;50.652;6.172;2022-09-25T21:47:48;96094.81;;;7.21;100.00
22862;BME280;11598;50.652;6.172;2022-09-25T21:57:49;96093.16;;;7.20;100.00
22862;BME280;11598;50.652;6.172;2022-09-25T22:07:50;96077.34;;;7.12;100.00
22862;BME280;11598;50.652;6.172;2022-09-25T22:17:50;96070.50;;;6.98;100.00
22862;BME280;11598;50.652;6.172;2022-09-25T22:27:50;96060.47;;;6.81;100.00
22862;BME280;11598;50.652;6.172;2022-09-25T22:37:51;96054.06;;;6.73;100.00
22862;BME280;11598;50.652;6.172;2022-09-25T22:47:51;96049.19;;;6.69;100.00
22862;BME280;11598;50.652;6.172;2022-09-25T22:57:52;96041.09;;;6.61;100.00
22862;BME280;11598;50.652;6.172;2022-09-25T23:07:52;96045.66;;;6.57;100.00
22862;BME280;11598;50.652;6.172;2022-09-25T23:17:52;96030.25;;;6.55;100.00
22862;BME280;11598;50.652;6.172;2022-09-25T23:27:53;96023.34;;;6.56;100.00
22862;BME280;11598;50.652;6.172;2022-09-25T23:37:53;96017.19;;;6.71;100.00
22862;BME280;11598;50.652;6.172;2022-09-25T23:47:54;95988.91;;;6.83;100.00
22862;BME280;11598;50.652;6.172;2022-09-25T23:57:54;95981.66;;;6.88;100.00
